Mont Saint Michel — FNMT — position and weather

sailwx.info

Track history (hours):
 
Tides and Currents Weather Stations Pressure Air Temp Water Temp Dewpoint Dewpoint Depression Visibility Wind Speed Wind Dir Waves Ship Positions

Mont Saint Michel

Last reported at 2019-Oct-19 04:30 UTC. Time now 2019-Oct-19 04:36 UTC.
Position N 49°17' W 000°15'.

Length 173 m; beam 29 m.

Type: Ship. MMSI: 227023100.

Date/timePositionNaut miles runAvg speedWind from/ knotsBaromVisibWave heightAir tempDewpointWater temp
2019-Oct-19 04:30N 49°17' W 000°15'815.4
2019-Oct-19 04:00N 49°25' W 000°15'918.5
2019-Oct-19 03:30N 49°33' W 000°22'816.5
2019-Oct-19 03:00N 49°41' W 000°26'816.5
2019-Oct-19 02:30N 49°49' W 000°31'816.7
2019-Oct-19 02:00N 49°56' W 000°36'816.9
2019-Oct-19 01:30N 50°04' W 000°41'1017.0
2019-Oct-19 00:55N 50°13' W 000°48'1516.9
2019-Oct-19 00:00N 50°27' W 001°00'714.3
2019-Oct-18 23:30N 50°32' W 001°06'510.7
2019-Oct-18 23:01N 50°38' W 001°06'510.7
2019-Oct-18 22:31N 50°43' W 001°03'611.8
2019-Oct-18 22:01N 50°48' W 001°07'1 1.8
2019-Oct-18 21:30N 50°49' W 001°06'0 0.0
2019-Oct-18 21:01N 50°49' W 001°06'0 0.0
2019-Oct-18 20:31N 50°49' W 001°06'2 3.6
2019-Oct-18 20:00N 50°47' W 001°06'815.5
2019-Oct-18 19:30N 50°41' W 000°58'1019.4
2019-Oct-18 19:00N 50°31' W 000°59'2919.5
2019-Oct-18 17:32N 50°03' W 000°57'120.5
2019-Oct-18 17:29N 50°02' W 000°57'1020.7
2019-Oct-18 17:00N 49°52' W 000°54'1020.6
2019-Oct-18 16:30N 49°43' W 000°47'1121.4
2019-Oct-18 16:00N 49°35' W 000°36'1121.4
2019-Oct-18 15:30N 49°28' W 000°23'918.6
2019-Oct-18 15:00N 49°21' W 000°14'4 7.2
2019-Oct-18 14:30N 49°17' W 000°15'0 0.0
2019-Oct-18 14:00N 49°17' W 000°15'0 0.0
2019-Oct-18 13:30N 49°17' W 000°15'0 0.0
2019-Oct-18 13:00N 49°17' W 000°15'3 5.0
2019-Oct-18 12:30N 49°20' W 000°14'917.4
2019-Oct-18 12:01N 49°28' W 000°19'1019.3
2019-Oct-18 11:31N 49°37' W 000°23'1019.6
2019-Oct-18 11:01N 49°46' W 000°28'1020.1
2019-Oct-18 10:31N 49°56' W 000°35'1020.3
2019-Oct-18 10:00N 50°05' W 000°42'1020.2
2019-Oct-18 09:30N 50°14' W 000°49'1220.3
2019-Oct-18 08:54N 50°25' W 000°57'820.3
2019-Oct-18 08:30N 50°32' W 001°03'816.0
2019-Oct-18 08:00N 50°40' W 001°04'612.6
2019-Oct-18 07:30N 50°46' W 001°06'2 4.9
2019-Oct-18 07:00N 50°49' W 001°06'0 0.0
2019-Oct-18 06:30N 50°49' W 001°06'0 0.0
2019-Oct-18 06:00N 50°49' W 001°06'0 0.3
2019-Oct-18 05:30N 50°49' W 001°06'5 9.1
2019-Oct-18 05:00N 50°44' W 001°04'713.6
2019-Oct-18 04:31N 50°39' W 000°59'714.5
2019-Oct-18 04:00N 50°31' W 000°59'1312.9
2019-Oct-18 03:00N 50°18' W 001°01'510.7
2019-Oct-18 02:30N 50°13' W 001°01'711.0
2019-Oct-18 01:52N 50°06' W 001°00'511.3
2019-Oct-18 01:27N 50°01' W 001°00'511.3
2019-Oct-18 01:00N 49°56' W 000°60'611.4
2019-Oct-18 00:30N 49°51' W 000°60'510.5
2019-Oct-18 00:00N 49°46' W 000°56'714.3
2019-Oct-17 23:30N 49°41' W 000°48'714.7
2019-Oct-17 23:00N 49°36' W 000°40'714.9
2019-Oct-17 22:30N 49°31' W 000°31'713.4
2019-Oct-17 22:00N 49°26' W 000°24'612.6
2019-Oct-17 21:30N 49°22' W 000°16'5 9.9
2019-Oct-17 21:00N 49°17' W 000°15'0 0.0
2019-Oct-17 20:30N 49°17' W 000°15'0 0.0
2019-Oct-17 20:00N 49°17' W 000°15'0 0.0
2019-Oct-17 19:30N 49°17' W 000°15'3 5.6
2019-Oct-17 19:00N 49°20' W 000°14'917.6
2019-Oct-17 18:30N 49°28' W 000°20'917.4
2019-Oct-17 18:00N 49°36' W 000°24'917.5
2019-Oct-17 17:30N 49°45' W 000°28'816.8
2019-Oct-17 17:00N 49°52' W 000°35'918.9
2019-Oct-17 16:30N 50°01' W 000°39'918.8
2019-Oct-17 16:00N 50°10' W 000°44'1319.0
2019-Oct-17 15:19N 50°23' W 000°50'619.0
2019-Oct-17 15:00N 50°28' W 000°53'918.7
2019-Oct-17 14:30N 50°37' W 000°57'918.4
2019-Oct-17 14:00N 50°45' W 001°05'4 7.7
2019-Oct-17 13:30N 50°49' W 001°06'0 0.0
2019-Oct-17 13:00N 50°49' W 001°06'0 0.0
2019-Oct-17 12:30N 50°49' W 001°06'0 0.1
2019-Oct-17 12:00N 50°49' W 001°06'611.0
2019-Oct-17 11:30N 50°43' W 001°03'1019.7
2019-Oct-17 11:00N 50°35' W 000°57'2020.1
2019-Oct-17 10:02N 50°16' W 000°46'120.2
2019-Oct-17 10:00N 50°15' W 000°45'1019.7
2019-Oct-17 09:30N 50°06' W 000°40'1019.8
2019-Oct-17 09:00N 49°57' W 000°36'1019.4
2019-Oct-17 08:30N 49°48' W 000°31'918.0
2019-Oct-17 08:00N 49°39' W 000°27'918.0
2019-Oct-17 07:30N 49°31' W 000°21'918.4
2019-Oct-17 07:00N 49°22' W 000°16'510.3
2019-Oct-17 06:30N 49°17' W 000°15'0 0.0
2019-Oct-17 06:00N 49°17' W 000°15'0 0.0
2019-Oct-17 05:30N 49°17' W 000°15'0 0.0
2019-Oct-17 05:00N 49°17' W 000°15'0 0.5
2019-Oct-17 04:30N 49°18' W 000°15'713.4
2019-Oct-17 04:00N 49°24' W 000°17'714.2
2019-Oct-17 03:30N 49°31' W 000°20'510.1
2019-Oct-17 03:01N 49°36' W 000°23'5 9.8
2019-Oct-17 02:31N 49°40' W 000°25'510.1
2019-Oct-17 02:01N 49°45' W 000°27'510.1
2019-Oct-17 01:31N 49°50' W 000°29'510.4
2019-Oct-17 01:01N 49°55' W 000°32'714.3
2019-Oct-17 00:30N 50°02' W 000°36'815.2
2019-Oct-17 00:00N 50°09' W 000°39'1315.1
2019-Oct-16 23:07N 50°21' W 000°47'213.1
2019-Oct-16 23:00N 50°23' W 000°47'714.9
2019-Oct-16 22:31N 50°30' W 000°52'815.6
2019-Oct-16 22:01N 50°36' W 000°57'714.9
2019-Oct-16 21:31N 50°43' W 001°03'612.0
2019-Oct-16 21:00N 50°48' W 001°07'1 1.3
2019-Oct-16 20:31N 50°49' W 001°06'0 0.0
2019-Oct-16 20:00N 50°49' W 001°06'0 0.0
2019-Oct-16 19:31N 50°49' W 001°06'0 0.0
2019-Oct-16 19:01N 50°49' W 001°06'0 0.0
2019-Oct-16 18:31N 50°49' W 001°06'1 1.4
2019-Oct-16 18:01N 50°48' W 001°07'612.5
2019-Oct-16 17:30N 50°43' W 001°01'815.7
2019-Oct-16 17:00N 50°36' W 000°57'1816.9
2019-Oct-16 15:56N 50°19' W 000°47'715.9
2019-Oct-16 15:30N 50°12' W 000°44'816.6
2019-Oct-16 15:00N 50°05' W 000°39'816.6
2019-Oct-16 14:30N 49°57' W 000°35'816.9
2019-Oct-16 14:00N 49°49' W 000°30'816.7
2019-Oct-16 13:30N 49°41' W 000°25'918.5
2019-Oct-16 13:00N 49°32' W 000°20'1019.1
2019-Oct-16 12:30N 49°23' W 000°16'612.1
2019-Oct-16 12:00N 49°17' W 000°15'0 0.0
2019-Oct-16 11:30N 49°17' W 000°15'0 0.0
2019-Oct-16 11:00N 49°17' W 000°15'0 0.0
2019-Oct-16 10:30N 49°17' W 000°15'0 0.0
2019-Oct-16 10:00N 49°17' W 000°15'0 0.1
2019-Oct-16 09:30N 49°17' W 000°15'0 0.0
2019-Oct-16 09:00N 49°17' W 000°15'0 0.0
2019-Oct-16 08:30N 49°17' W 000°15'0 0.0
2019-Oct-16 08:00N 49°17' W 000°15'0 0.0
2019-Oct-16 07:30N 49°17' W 000°15'0 0.1
2019-Oct-16 07:00N 49°17' W 000°15'0 0.0
2019-Oct-16 06:30N 49°17' W 000°15'0 0.0
2019-Oct-16 06:00N 49°17' W 000°15'0 0.0
2019-Oct-16 05:30N 49°17' W 000°15'0 0.7
2019-Oct-16 05:00N 49°18' W 000°15'713.4
2019-Oct-16 04:30N 49°24' W 000°15'816.0
2019-Oct-16 04:00N 49°32' W 000°19'816.3
2019-Oct-16 03:30N 49°39' W 000°24'815.7
2019-Oct-16 03:00N 49°46' W 000°30'815.7
2019-Oct-16 02:30N 49°54' W 000°32'815.2
2019-Oct-16 02:00N 50°01' W 000°36'612.9
2019-Oct-16 01:30N 50°07' W 000°39'1713.4
2019-Oct-16 00:14N 50°23' W 000°48'413.9
2019-Oct-15 23:59N 50°26' W 000°50'714.0
2019-Oct-15 23:30N 50°33' W 000°55'713.8
2019-Oct-15 23:00N 50°39' W 000°59'713.1
2019-Oct-15 22:30N 50°44' W 001°04'4 8.9
2019-Oct-15 22:00N 50°49' W 001°07'1 1.5
2019-Oct-15 21:30N 50°49' W 001°06'0 0.0
2019-Oct-15 21:00N 50°49' W 001°06'0 0.0
2019-Oct-15 20:30N 50°49' W 001°06'1 1.2
2019-Oct-15 20:00N 50°49' W 001°07'713.1
2019-Oct-15 19:31N 50°43' W 001°01'918.7
2019-Oct-15 19:01N 50°35' W 000°54'1918.6
2019-Oct-15 18:00N 50°17' W 000°47'918.7
2019-Oct-15 17:30N 50°08' W 000°44'919.0
2019-Oct-15 17:01N 49°59' W 000°40'1019.5
2019-Oct-15 16:31N 49°50' W 000°32'918.4
2019-Oct-15 16:01N 49°41' W 000°28'1019.3
2019-Oct-15 15:31N 49°32' W 000°24'1019.6
2019-Oct-15 15:01N 49°24' W 000°17'612.6
2019-Oct-15 14:30N 49°17' W 000°15'0 0.0
2019-Oct-15 14:00N 49°17' W 000°15'0 0.0
2019-Oct-15 13:30N 49°17' W 000°15'0 0.0
2019-Oct-15 13:00N 49°17' W 000°15'3 6.1
2019-Oct-15 12:31N 49°20' W 000°14'1019.3
2019-Oct-15 12:01N 49°30' W 000°19'1019.4
2019-Oct-15 11:31N 49°38' W 000°27'1019.6
2019-Oct-15 11:00N 49°47' W 000°33'1019.6
2019-Oct-15 10:31N 49°56' W 000°39'1019.5
2019-Oct-15 10:01N 50°05' W 000°43'2019.7
2019-Oct-15 09:00N 50°24' W 000°52'1020.3
2019-Oct-15 08:31N 50°34' W 000°57'918.8
2019-Oct-15 08:01N 50°43' W 001°00'713.9
2019-Oct-15 07:30N 50°48' W 001°07'1 1.4
2019-Oct-15 07:00N 50°49' W 001°06'0 0.0
2019-Oct-15 06:30N 50°49' W 001°06'0 0.0
2019-Oct-15 06:00N 50°49' W 001°06'1 1.3
2019-Oct-15 05:30N 50°48' W 001°07'611.7
2019-Oct-15 05:00N 50°44' W 001°02'612.9
2019-Oct-15 04:30N 50°38' W 000°58'814.9
2019-Oct-15 03:59N 50°30' W 000°54'1712.3
2019-Oct-15 02:36N 50°14' W 000°46'112.2
2019-Oct-15 02:30N 50°13' W 000°45'612.1
2019-Oct-15 02:00N 50°07' W 000°42'612.4
2019-Oct-15 01:30N 50°01' W 000°38'612.5
2019-Oct-15 01:00N 49°56' W 000°34'612.3
2019-Oct-15 00:30N 49°50' W 000°31'612.1
2019-Oct-15 00:00N 49°45' W 000°27'611.8
2019-Oct-14 23:30N 49°39' W 000°24'611.5
2019-Oct-14 23:00N 49°33' W 000°22'611.4
2019-Oct-14 22:30N 49°28' W 000°19'611.3
2019-Oct-14 22:00N 49°23' W 000°15'510.5
2019-Oct-14 21:30N 49°18' W 000°15'0 0.5
2019-Oct-14 21:00N 49°17' W 000°15'0 0.0
2019-Oct-14 20:30N 49°17' W 000°15'0 0.0
2019-Oct-14 20:00N 49°17' W 000°15'0 0.0
2019-Oct-14 19:30N 49°17' W 000°15'4 7.2
2019-Oct-14 19:00N 49°21' W 000°14'1019.3
2019-Oct-14 18:30N 49°30' W 000°19'918.5
2019-Oct-14 18:00N 49°38' W 000°25'918.0
2019-Oct-14 17:30N 49°47' W 000°31'917.9
2019-Oct-14 17:00N 49°54' W 000°39'918.0
2019-Oct-14 16:30N 50°02' W 000°45'918.1
2019-Oct-14 16:00N 50°11' W 000°49'1718.8
2019-Oct-14 15:06N 50°27' W 000°52'218.4
2019-Oct-14 15:00N 50°29' W 000°53'918.3
2019-Oct-14 14:30N 50°38' W 000°58'917.1
2019-Oct-14 14:00N 50°45' W 001°05'4 7.3
2019-Oct-14 13:31N 50°49' W 001°06'0 0.0
2019-Oct-14 13:01N 50°49' W 001°06'0 0.0
2019-Oct-14 12:31N 50°49' W 001°06'0 0.5
2019-Oct-14 12:01N 50°49' W 001°06'611.7
2019-Oct-14 11:30N 50°43' W 001°03'917.6
2019-Oct-14 11:00N 50°35' W 000°58'1819.7
2019-Oct-14 10:07N 50°18' W 000°49'221.0
2019-Oct-14 10:00N 50°16' W 000°48'1020.4
2019-Oct-14 09:30N 50°07' W 000°43'1020.2
2019-Oct-14 09:00N 49°57' W 000°38'1020.1
2019-Oct-14 08:30N 49°48' W 000°33'1020.1
2019-Oct-14 08:00N 49°38' W 000°29'1019.8
2019-Oct-14 07:30N 49°29' W 000°22'918.7
2019-Oct-14 07:00N 49°21' W 000°15'4 7.2
2019-Oct-14 06:30N 49°17' W 000°15'0 0.0
2019-Oct-14 06:00N 49°17' W 000°15'0 0.0
2019-Oct-14 05:30N 49°17' W 000°15'0 0.0
2019-Oct-14 05:01N 49°17' W 000°15'0 0.2
2019-Oct-14 04:30N 49°17' W 000°15'713.9
2019-Oct-14 04:00N 49°24' W 000°15'816.3
2019-Oct-14 03:30N 49°32' W 000°21'816.9
2019-Oct-14 03:00N 49°39' W 000°26'917.3
2019-Oct-14 02:30N 49°48' W 000°29'715.0
2019-Oct-14 02:00N 49°55' W 000°33'714.2
2019-Oct-14 01:30N 50°02' W 000°36'714.4
2019-Oct-14 01:00N 50°09' W 000°39'2214.7
2019-Oct-13 23:31N 50°29' W 000°53'015.3
2019-Oct-13 23:30N 50°29' W 000°53'815.2
2019-Oct-13 23:00N 50°36' W 000°57'714.2
2019-Oct-13 22:30N 50°42' W 001°02'611.9
2019-Oct-13 22:00N 50°47' W 001°07'1 2.7
2019-Oct-13 21:30N 50°49' W 001°06'0 0.0
2019-Oct-13 21:00N 50°49' W 001°06'0 0.0
2019-Oct-13 20:30N 50°49' W 001°06'0 0.8
2019-Oct-13 20:01N 50°49' W 001°06'612.3
2019-Oct-13 19:30N 50°43' W 001°01'918.3
2019-Oct-13 19:00N 50°35' W 000°57'2019.5
2019-Oct-13 18:00N 50°16' W 000°47'918.1
2019-Oct-13 17:30N 50°08' W 000°43'918.4
2019-Oct-13 17:00N 49°59' W 000°39'918.8
2019-Oct-13 16:30N 49°50' W 000°34'918.9
2019-Oct-13 16:00N 49°41' W 000°28'918.8
2019-Oct-13 15:30N 49°33' W 000°20'919.0
2019-Oct-13 15:00N 49°24' W 000°16'713.8
2019-Oct-13 14:30N 49°17' W 000°15'0 0.1
2019-Oct-13 14:00N 49°17' W 000°15'0 0.0
2019-Oct-13 13:30N 49°17' W 000°15'0 0.0
2019-Oct-13 13:00N 49°17' W 000°15'4 8.0
2019-Oct-13 12:31N 49°21' W 000°15'918.3
2019-Oct-13 12:01N 49°30' W 000°20'918.2
2019-Oct-13 11:31N 49°38' W 000°26'918.9
2019-Oct-13 11:01N 49°46' W 000°33'1019.6
2019-Oct-13 10:31N 49°55' W 000°39'1019.9
2019-Oct-13 10:01N 50°05' W 000°44'1020.0
2019-Oct-13 09:30N 50°14' W 000°49'1019.9
2019-Oct-13 09:00N 50°24' W 000°54'1019.7
2019-Oct-13 08:31N 50°33' W 000°57'918.6
2019-Oct-13 08:01N 50°42' W 001°01'714.4
2019-Oct-13 07:31N 50°48' W 001°07'1 1.5
2019-Oct-13 07:00N 50°49' W 001°06'0 0.0
2019-Oct-13 06:30N 50°49' W 001°06'0 0.0
2019-Oct-13 06:00N 50°49' W 001°06'0 0.2
2019-Oct-13 05:31N 50°49' W 001°06'5 9.1
2019-Oct-13 05:01N 50°44' W 001°04'713.5
2019-Oct-13 04:30N 50°39' W 000°58'611.7
2019-Oct-13 04:01N 50°33' W 000°55'611.7
2019-Oct-13 03:28N 50°28' W 000°51'1111.4
2019-Oct-13 02:33N 50°18' W 000°45'111.8
2019-Oct-13 02:26N 50°17' W 000°44'511.5
2019-Oct-13 02:00N 50°12' W 000°42'611.5
2019-Oct-13 01:30N 50°07' W 000°39'612.0
2019-Oct-13 01:01N 50°01' W 000°36'612.1
2019-Oct-13 00:30N 49°55' W 000°34'612.3
2019-Oct-13 00:00N 49°49' W 000°30'612.1
2019-Oct-12 23:30N 49°43' W 000°27'611.9
2019-Oct-12 23:00N 49°38' W 000°23'611.6
2019-Oct-12 22:31N 49°33' W 000°20'611.5
2019-Oct-12 22:01N 49°27' W 000°17'611.4
2019-Oct-12 21:31N 49°22' W 000°15'4 8.9
2019-Oct-12 21:01N 49°17' W 000°15'0 0.1
2019-Oct-12 20:30N 49°17' W 000°15'0 0.0
2019-Oct-12 20:01N 49°17' W 000°15'0 0.0
2019-Oct-12 19:30N 49°17' W 000°15'4 7.4
2019-Oct-12 19:00N 49°21' W 000°14'1019.2
2019-Oct-12 18:30N 49°30' W 000°19'816.7
2019-Oct-12 18:00N 49°38' W 000°25'816.9
2019-Oct-12 17:30N 49°45' W 000°30'816.6
2019-Oct-12 17:00N 49°53' W 000°34'1019.0
2019-Oct-12 16:31N 50°02' W 000°39'918.8
2019-Oct-12 16:01N 50°11' W 000°45'1719.3
2019-Oct-12 15:07N 50°27' W 000°52'219.1
2019-Oct-12 15:00N 50°30' W 000°53'918.7
2019-Oct-12 14:30N 50°38' W 000°59'917.2
2019-Oct-12 14:01N 50°46' W 001°05'3 6.2
2019-Oct-12 13:31N 50°49' W 001°06'0 0.0
2019-Oct-12 13:00N 50°49' W 001°06'0 0.0
2019-Oct-12 12:30N 50°49' W 001°06'0 0.8
2019-Oct-12 12:00N 50°49' W 001°06'613.0
2019-Oct-12 11:31N 50°43' W 001°02'918.3
2019-Oct-12 11:00N 50°34' W 000°57'1518.8
2019-Oct-12 10:12N 50°20' W 000°49'419.2
2019-Oct-12 09:59N 50°16' W 000°48'918.7
2019-Oct-12 09:30N 50°07' W 000°44'918.3
2019-Oct-12 09:01N 49°59' W 000°39'918.4
2019-Oct-12 08:31N 49°50' W 000°33'918.6
2019-Oct-12 08:01N 49°42' W 000°28'918.7
2019-Oct-12 07:31N 49°33' W 000°22'918.5
2019-Oct-12 07:00N 49°24' W 000°17'714.3
2019-Oct-12 06:30N 49°17' W 000°15'0 0.1
2019-Oct-12 06:00N 49°17' W 000°15'0 0.0
2019-Oct-12 05:30N 49°17' W 000°15'0 0.0
2019-Oct-12 05:00N 49°17' W 000°15'0 0.2
2019-Oct-12 04:31N 49°17' W 000°15'612.9
2019-Oct-12 04:00N 49°24' W 000°14'713.2
2019-Oct-12 03:30N 49°30' W 000°18'713.4
2019-Oct-12 03:00N 49°36' W 000°22'714.9
2019-Oct-12 02:30N 49°43' W 000°26'816.2
2019-Oct-12 02:01N 49°51' W 000°30'816.0
2019-Oct-12 01:30N 49°58' W 000°35'815.8
2019-Oct-12 01:00N 50°06' W 000°39'2116.4
2019-Oct-11 23:43N 50°25' W 000°51'416.4
2019-Oct-11 23:28N 50°29' W 000°53'715.0
2019-Oct-11 23:00N 50°36' W 000°57'714.0
2019-Oct-11 22:30N 50°42' W 001°01'612.5
2019-Oct-11 22:01N 50°47' W 001°07'1 2.8
2019-Oct-11 21:31N 50°49' W 001°06'0 0.0
2019-Oct-11 21:00N 50°49' W 001°06'0 0.0
2019-Oct-11 20:30N 50°49' W 001°06'0 0.6
2019-Oct-11 20:00N 50°49' W 001°06'612.1
2019-Oct-11 19:30N 50°43' W 001°02'919.0
2019-Oct-11 19:00N 50°35' W 000°56'1618.7
2019-Oct-11 18:10N 50°20' W 000°46'320.0
2019-Oct-11 18:00N 50°17' W 000°45'919.0
2019-Oct-11 17:30N 50°08' W 000°41'1019.5
2019-Oct-11 17:00N 49°58' W 000°37'1019.4
2019-Oct-11 16:30N 49°49' W 000°33'1020.0
2019-Oct-11 16:00N 49°40' W 000°29'1020.2
2019-Oct-11 15:30N 49°30' W 000°22'1020.5
2019-Oct-11 15:00N 49°21' W 000°15'4 8.0
2019-Oct-11 14:30N 49°17' W 000°15'0 0.0
2019-Oct-11 14:00N 49°17' W 000°15'0 0.0
2019-Oct-11 13:30N 49°17' W 000°15'0 0.2
2019-Oct-11 13:01N 49°17' W 000°15'815.0
2019-Oct-11 12:31N 49°25' W 000°16'919.0
2019-Oct-11 12:01N 49°34' W 000°21'918.7
2019-Oct-11 11:31N 49°42' W 000°26'918.6
2019-Oct-11 11:00N 49°51' W 000°30'918.8
2019-Oct-11 10:30N 50°01' W 000°33'1019.1
2019-Oct-11 10:01N 50°09' W 000°40'2219.4
2019-Oct-11 08:54N 50°27' W 000°59'719.4
2019-Oct-11 08:31N 50°33' W 001°05'815.9
2019-Oct-11 08:01N 50°41' W 001°03'714.3
2019-Oct-11 07:30N 50°48' W 001°07'1 2.1
2019-Oct-11 07:01N 50°49' W 001°06'0 0.0
2019-Oct-11 06:30N 50°49' W 001°06'0 0.0
2019-Oct-11 06:00N 50°49' W 001°06'0 0.3
2019-Oct-11 05:30N 50°49' W 001°06'510.0
2019-Oct-11 05:00N 50°44' W 001°03'612.4
2019-Oct-11 04:30N 50°39' W 000°58'714.9
2019-Oct-11 04:00N 50°32' W 000°55'1613.6
2019-Oct-11 02:48N 50°16' W 000°46'310.8
2019-Oct-11 02:30N 50°13' W 000°44'510.7
2019-Oct-11 02:00N 50°08' W 000°41'510.9
2019-Oct-11 01:30N 50°03' W 000°38'611.1
2019-Oct-11 01:00N 49°58' W 000°36'611.5
2019-Oct-11 00:30N 49°52' W 000°32'611.4
2019-Oct-11 00:00N 49°47' W 000°29'611.5
2019-Oct-10 23:30N 49°42' W 000°26'611.4
2019-Oct-10 23:00N 49°37' W 000°23'611.2
2019-Oct-10 22:30N 49°31' W 000°19'510.9
2019-Oct-10 22:00N 49°26' W 000°16'510.8
2019-Oct-10 21:30N 49°21' W 000°14'4 7.3
2019-Oct-10 21:00N 49°17' W 000°15'0 0.0
2019-Oct-10 20:30N 49°17' W 000°15'0 0.0
2019-Oct-10 20:00N 49°17' W 000°15'0 0.0
2019-Oct-10 19:30N 49°17' W 000°15'3 6.1
2019-Oct-10 19:00N 49°20' W 000°14'917.9
2019-Oct-10 18:30N 49°29' W 000°18'918.4
2019-Oct-10 18:00N 49°38' W 000°23'918.5
2019-Oct-10 17:30N 49°46' W 000°29'1020.6
2019-Oct-10 17:00N 49°55' W 000°36'1019.9
2019-Oct-10 16:30N 50°05' W 000°40'1020.1
2019-Oct-10 16:00N 50°14' W 000°46'1319.6
2019-Oct-10 15:21N 50°27' W 000°52'719.4
2019-Oct-10 15:00N 50°33' W 000°55'918.9
2019-Oct-10 14:30N 50°42' W 000°58'815.6
2019-Oct-10 14:00N 50°48' W 001°07'1 2.1
2019-Oct-10 13:30N 50°49' W 001°06'0 0.0
2019-Oct-10 13:00N 50°49' W 001°06'0 0.0
2019-Oct-10 12:30N 50°49' W 001°06'1 1.6
2019-Oct-10 12:00N 50°48' W 001°07'713.0
2019-Oct-10 11:31N 50°43' W 001°02'1019.1
2019-Oct-10 11:01N 50°35' W 000°54'1020.0
2019-Oct-10 10:30N 50°25' W 000°47'1019.8
2019-Oct-10 10:00N 50°15' W 000°46'1019.8
2019-Oct-10 09:30N 50°06' W 000°40'1020.0
2019-Oct-10 09:01N 49°57' W 000°35'1019.8
2019-Oct-10 08:31N 49°48' W 000°30'918.8
2019-Oct-10 08:00N 49°39' W 000°26'918.0
2019-Oct-10 07:31N 49°30' W 000°20'918.5
2019-Oct-10 07:01N 49°22' W 000°15'4 8.6
2019-Oct-10 06:30N 49°17' W 000°15'0 0.0
2019-Oct-10 06:00N 49°17' W 000°15'0 0.0
2019-Oct-10 05:30N 49°17' W 000°15'0 0.0
2019-Oct-10 05:00N 49°17' W 000°15'0 0.3
2019-Oct-10 04:30N 49°17' W 000°15'815.3
2019-Oct-10 04:00N 49°25' W 000°15'612.3
2019-Oct-10 03:30N 49°30' W 000°20'611.8
2019-Oct-10 03:00N 49°35' W 000°25'611.2
2019-Oct-10 02:30N 49°40' W 000°27'510.8
2019-Oct-10 02:00N 49°46' W 000°30'510.5
2019-Oct-10 01:30N 49°50' W 000°34'612.4
2019-Oct-10 01:00N 49°56' W 000°38'713.9
2019-Oct-10 00:30N 50°02' W 000°41'713.9
2019-Oct-10 00:00N 50°09' W 000°45'1914.2
2019-Oct-09 22:40N 50°27' W 000°54'214.1
2019-Oct-09 22:31N 50°29' W 000°55'714.2
2019-Oct-09 22:00N 50°36' W 000°59'714.2
2019-Oct-09 21:30N 50°43' W 001°02'612.2
2019-Oct-09 21:00N 50°48' W 001°07'1 1.7
2019-Oct-09 20:30N 50°49' W 001°06'0 0.0
2019-Oct-09 20:00N 50°49' W 001°06'0 0.0
2019-Oct-09 19:30N 50°49' W 001°06'0 0.0
2019-Oct-09 19:00N 50°49' W 001°06'0 0.0
2019-Oct-09 18:30N 50°49' W 001°06'0 0.7
2019-Oct-09 18:00N 50°49' W 001°06'612.6
2019-Oct-09 17:30N 50°43' W 001°02'918.5
2019-Oct-09 17:00N 50°35' W 000°56'918.3
2019-Oct-09 16:30N 50°26' W 000°50'1216.3
2019-Oct-09 15:46N 50°16' W 000°41'417.3
2019-Oct-09 15:30N 50°11' W 000°40'917.5
2019-Oct-09 15:00N 50°02' W 000°38'917.3
2019-Oct-09 14:31N 49°54' W 000°35'917.6
2019-Oct-09 14:00N 49°46' W 000°32'917.9
2019-Oct-09 13:30N 49°37' W 000°29'917.5
2019-Oct-09 13:00N 49°30' W 000°21'918.2
2019-Oct-09 12:30N 49°22' W 000°15'4 8.5
2019-Oct-09 12:01N 49°17' W 000°15'0 0.0
2019-Oct-09 11:30N 49°17' W 000°15'0 0.0
2019-Oct-09 11:00N 49°17' W 000°15'0 0.0
2019-Oct-09 10:30N 49°17' W 000°15'0 0.0
2019-Oct-09 10:00N 49°17' W 000°15'0 0.0
2019-Oct-09 09:31N 49°17' W 000°15'0 0.0
2019-Oct-09 09:01N 49°17' W 000°15'0 0.0
2019-Oct-09 08:31N 49°17' W 000°15'0 0.0
2019-Oct-09 08:00N 49°17' W 000°15'0 0.0
2019-Oct-09 07:30N 49°17' W 000°15'0 0.0
2019-Oct-09 07:00N 49°17' W 000°15'0 0.0
2019-Oct-09 06:30N 49°17' W 000°15'0 0.0
2019-Oct-09 06:00N 49°17' W 000°15'0 0.0
2019-Oct-09 05:30N 49°17' W 000°15'3 6.6
2019-Oct-09 05:01N 49°21' W 000°14'815.3
2019-Oct-09 04:31N 49°28' W 000°18'  
Track history (hours):
 
Tides and Currents Weather Stations Pressure Air Temp Water Temp Dewpoint Dewpoint Depression Visibility Wind Speed Wind Dir Waves Ship Positions

Mont Saint Michel

Last reported at 2019-Oct-19 04:30 UTC. Time now 2019-Oct-19 04:36 UTC.
Position N 49°17' W 000°15'.

Length 173 m; beam 29 m.

Type: Ship. MMSI: 227023100.

Date/timePositionNaut miles runAvg speedWind from/ knotsBaromVisibWave heightAir tempDewpointWater temp
2019-Oct-19 04:30N 49°17' W 000°15'815.4
2019-Oct-19 04:00N 49°25' W 000°15'918.5
2019-Oct-19 03:30N 49°33' W 000°22'816.5
2019-Oct-19 03:00N 49°41' W 000°26'816.5
2019-Oct-19 02:30N 49°49' W 000°31'816.7
2019-Oct-19 02:00N 49°56' W 000°36'816.9
2019-Oct-19 01:30N 50°04' W 000°41'1017.0
2019-Oct-19 00:55N 50°13' W 000°48'1516.9
2019-Oct-19 00:00N 50°27' W 001°00'714.3
2019-Oct-18 23:30N 50°32' W 001°06'510.7
2019-Oct-18 23:01N 50°38' W 001°06'510.7
2019-Oct-18 22:31N 50°43' W 001°03'611.8
2019-Oct-18 22:01N 50°48' W 001°07'1 1.8
2019-Oct-18 21:30N 50°49' W 001°06'0 0.0
2019-Oct-18 21:01N 50°49' W 001°06'0 0.0
2019-Oct-18 20:31N 50°49' W 001°06'2 3.6
2019-Oct-18 20:00N 50°47' W 001°06'815.5
2019-Oct-18 19:30N 50°41' W 000°58'1019.4
2019-Oct-18 19:00N 50°31' W 000°59'2919.5
2019-Oct-18 17:32N 50°03' W 000°57'120.5
2019-Oct-18 17:29N 50°02' W 000°57'1020.7
2019-Oct-18 17:00N 49°52' W 000°54'1020.6
2019-Oct-18 16:30N 49°43' W 000°47'1121.4
2019-Oct-18 16:00N 49°35' W 000°36'1121.4
2019-Oct-18 15:30N 49°28' W 000°23'918.6
2019-Oct-18 15:00N 49°21' W 000°14'4 7.2
2019-Oct-18 14:30N 49°17' W 000°15'0 0.0
2019-Oct-18 14:00N 49°17' W 000°15'0 0.0
2019-Oct-18 13:30N 49°17' W 000°15'0 0.0
2019-Oct-18 13:00N 49°17' W 000°15'3 5.0
2019-Oct-18 12:30N 49°20' W 000°14'917.4
2019-Oct-18 12:01N 49°28' W 000°19'1019.3
2019-Oct-18 11:31N 49°37' W 000°23'1019.6
2019-Oct-18 11:01N 49°46' W 000°28'1020.1
2019-Oct-18 10:31N 49°56' W 000°35'1020.3
2019-Oct-18 10:00N 50°05' W 000°42'1020.2
2019-Oct-18 09:30N 50°14' W 000°49'1220.3
2019-Oct-18 08:54N 50°25' W 000°57'820.3
2019-Oct-18 08:30N 50°32' W 001°03'816.0
2019-Oct-18 08:00N 50°40' W 001°04'612.6
2019-Oct-18 07:30N 50°46' W 001°06'2 4.9
2019-Oct-18 07:00N 50°49' W 001°06'0 0.0
2019-Oct-18 06:30N 50°49' W 001°06'0 0.0
2019-Oct-18 06:00N 50°49' W 001°06'0 0.3
2019-Oct-18 05:30N 50°49' W 001°06'5 9.1
2019-Oct-18 05:00N 50°44' W 001°04'713.6
2019-Oct-18 04:31N 50°39' W 000°59'714.5
2019-Oct-18 04:00N 50°31' W 000°59'1312.9
2019-Oct-18 03:00N 50°18' W 001°01'510.7
2019-Oct-18 02:30N 50°13' W 001°01'711.0
2019-Oct-18 01:52N 50°06' W 001°00'511.3
2019-Oct-18 01:27N 50°01' W 001°00'511.3
2019-Oct-18 01:00N 49°56' W 000°60'611.4
2019-Oct-18 00:30N 49°51' W 000°60'510.5
2019-Oct-18 00:00N 49°46' W 000°56'714.3
2019-Oct-17 23:30N 49°41' W 000°48'714.7
2019-Oct-17 23:00N 49°36' W 000°40'714.9
2019-Oct-17 22:30N 49°31' W 000°31'713.4
2019-Oct-17 22:00N 49°26' W 000°24'612.6
2019-Oct-17 21:30N 49°22' W 000°16'5 9.9
2019-Oct-17 21:00N 49°17' W 000°15'0 0.0
2019-Oct-17 20:30N 49°17' W 000°15'0 0.0
2019-Oct-17 20:00N 49°17' W 000°15'0 0.0
2019-Oct-17 19:30N 49°17' W 000°15'3 5.6
2019-Oct-17 19:00N 49°20' W 000°14'917.6
2019-Oct-17 18:30N 49°28' W 000°20'917.4
2019-Oct-17 18:00N 49°36' W 000°24'917.5
2019-Oct-17 17:30N 49°45' W 000°28'816.8
2019-Oct-17 17:00N 49°52' W 000°35'918.9
2019-Oct-17 16:30N 50°01' W 000°39'918.8
2019-Oct-17 16:00N 50°10' W 000°44'1319.0
2019-Oct-17 15:19N 50°23' W 000°50'619.0
2019-Oct-17 15:00N 50°28' W 000°53'918.7
2019-Oct-17 14:30N 50°37' W 000°57'918.4
2019-Oct-17 14:00N 50°45' W 001°05'4 7.7
2019-Oct-17 13:30N 50°49' W 001°06'0 0.0
2019-Oct-17 13:00N 50°49' W 001°06'0 0.0
2019-Oct-17 12:30N 50°49' W 001°06'0 0.1
2019-Oct-17 12:00N 50°49' W 001°06'611.0
2019-Oct-17 11:30N 50°43' W 001°03'1019.7
2019-Oct-17 11:00N 50°35' W 000°57'2020.1
2019-Oct-17 10:02N 50°16' W 000°46'120.2
2019-Oct-17 10:00N 50°15' W 000°45'1019.7
2019-Oct-17 09:30N 50°06' W 000°40'1019.8
2019-Oct-17 09:00N 49°57' W 000°36'1019.4
2019-Oct-17 08:30N 49°48' W 000°31'918.0
2019-Oct-17 08:00N 49°39' W 000°27'918.0
2019-Oct-17 07:30N 49°31' W 000°21'918.4
2019-Oct-17 07:00N 49°22' W 000°16'510.3
2019-Oct-17 06:30N 49°17' W 000°15'0 0.0
2019-Oct-17 06:00N 49°17' W 000°15'0 0.0
2019-Oct-17 05:30N 49°17' W 000°15'0 0.0
2019-Oct-17 05:00N 49°17' W 000°15'0 0.5
2019-Oct-17 04:30N 49°18' W 000°15'713.4
2019-Oct-17 04:00N 49°24' W 000°17'714.2
2019-Oct-17 03:30N 49°31' W 000°20'510.1
2019-Oct-17 03:01N 49°36' W 000°23'5 9.8
2019-Oct-17 02:31N 49°40' W 000°25'510.1
2019-Oct-17 02:01N 49°45' W 000°27'510.1
2019-Oct-17 01:31N 49°50' W 000°29'510.4
2019-Oct-17 01:01N 49°55' W 000°32'714.3
2019-Oct-17 00:30N 50°02' W 000°36'815.2
2019-Oct-17 00:00N 50°09' W 000°39'1315.1
2019-Oct-16 23:07N 50°21' W 000°47'213.1
2019-Oct-16 23:00N 50°23' W 000°47'714.9
2019-Oct-16 22:31N 50°30' W 000°52'815.6
2019-Oct-16 22:01N 50°36' W 000°57'714.9
2019-Oct-16 21:31N 50°43' W 001°03'612.0
2019-Oct-16 21:00N 50°48' W 001°07'1 1.3
2019-Oct-16 20:31N 50°49' W 001°06'0 0.0
2019-Oct-16 20:00N 50°49' W 001°06'0 0.0
2019-Oct-16 19:31N 50°49' W 001°06'0 0.0
2019-Oct-16 19:01N 50°49' W 001°06'0 0.0
2019-Oct-16 18:31N 50°49' W 001°06'1 1.4
2019-Oct-16 18:01N 50°48' W 001°07'612.5
2019-Oct-16 17:30N 50°43' W 001°01'815.7
2019-Oct-16 17:00N 50°36' W 000°57'1816.9
2019-Oct-16 15:56N 50°19' W 000°47'715.9
2019-Oct-16 15:30N 50°12' W 000°44'816.6
2019-Oct-16 15:00N 50°05' W 000°39'816.6
2019-Oct-16 14:30N 49°57' W 000°35'816.9
2019-Oct-16 14:00N 49°49' W 000°30'816.7
2019-Oct-16 13:30N 49°41' W 000°25'918.5
2019-Oct-16 13:00N 49°32' W 000°20'1019.1
2019-Oct-16 12:30N 49°23' W 000°16'612.1
2019-Oct-16 12:00N 49°17' W 000°15'0 0.0
2019-Oct-16 11:30N 49°17' W 000°15'0 0.0
2019-Oct-16 11:00N 49°17' W 000°15'0 0.0
2019-Oct-16 10:30N 49°17' W 000°15'0 0.0
2019-Oct-16 10:00N 49°17' W 000°15'0 0.1
2019-Oct-16 09:30N 49°17' W 000°15'0 0.0
2019-Oct-16 09:00N 49°17' W 000°15'0 0.0
2019-Oct-16 08:30N 49°17' W 000°15'0 0.0
2019-Oct-16 08:00N 49°17' W 000°15'0 0.0
2019-Oct-16 07:30N 49°17' W 000°15'0 0.1
2019-Oct-16 07:00N 49°17' W 000°15'0 0.0
2019-Oct-16 06:30N 49°17' W 000°15'0 0.0
2019-Oct-16 06:00N 49°17' W 000°15'0 0.0
2019-Oct-16 05:30N 49°17' W 000°15'0 0.7
2019-Oct-16 05:00N 49°18' W 000°15'713.4
2019-Oct-16 04:30N 49°24' W 000°15'816.0
2019-Oct-16 04:00N 49°32' W 000°19'816.3
2019-Oct-16 03:30N 49°39' W 000°24'815.7
2019-Oct-16 03:00N 49°46' W 000°30'815.7
2019-Oct-16 02:30N 49°54' W 000°32'815.2
2019-Oct-16 02:00N 50°01' W 000°36'612.9
2019-Oct-16 01:30N 50°07' W 000°39'1713.4
2019-Oct-16 00:14N 50°23' W 000°48'413.9
2019-Oct-15 23:59N 50°26' W 000°50'714.0
2019-Oct-15 23:30N 50°33' W 000°55'713.8
2019-Oct-15 23:00N 50°39' W 000°59'713.1
2019-Oct-15 22:30N 50°44' W 001°04'4 8.9
2019-Oct-15 22:00N 50°49' W 001°07'1 1.5
2019-Oct-15 21:30N 50°49' W 001°06'0 0.0
2019-Oct-15 21:00N 50°49' W 001°06'0 0.0
2019-Oct-15 20:30N 50°49' W 001°06'1 1.2
2019-Oct-15 20:00N 50°49' W 001°07'713.1
2019-Oct-15 19:31N 50°43' W 001°01'918.7
2019-Oct-15 19:01N 50°35' W 000°54'1918.6
2019-Oct-15 18:00N 50°17' W 000°47'918.7
2019-Oct-15 17:30N 50°08' W 000°44'919.0
2019-Oct-15 17:01N 49°59' W 000°40'1019.5
2019-Oct-15 16:31N 49°50' W 000°32'918.4
2019-Oct-15 16:01N 49°41' W 000°28'1019.3
2019-Oct-15 15:31N 49°32' W 000°24'1019.6
2019-Oct-15 15:01N 49°24' W 000°17'612.6
2019-Oct-15 14:30N 49°17' W 000°15'0 0.0
2019-Oct-15 14:00N 49°17' W 000°15'0 0.0
2019-Oct-15 13:30N 49°17' W 000°15'0 0.0
2019-Oct-15 13:00N 49°17' W 000°15'3 6.1
2019-Oct-15 12:31N 49°20' W 000°14'1019.3
2019-Oct-15 12:01N 49°30' W 000°19'1019.4
2019-Oct-15 11:31N 49°38' W 000°27'1019.6
2019-Oct-15 11:00N 49°47' W 000°33'1019.6
2019-Oct-15 10:31N 49°56' W 000°39'1019.5
2019-Oct-15 10:01N 50°05' W 000°43'2019.7
2019-Oct-15 09:00N 50°24' W 000°52'1020.3
2019-Oct-15 08:31N 50°34' W 000°57'918.8
2019-Oct-15 08:01N 50°43' W 001°00'713.9
2019-Oct-15 07:30N 50°48' W 001°07'1 1.4
2019-Oct-15 07:00N 50°49' W 001°06'0 0.0
2019-Oct-15 06:30N 50°49' W 001°06'0 0.0
2019-Oct-15 06:00N 50°49' W 001°06'1 1.3
2019-Oct-15 05:30N 50°48' W 001°07'611.7
2019-Oct-15 05:00N 50°44' W 001°02'612.9
2019-Oct-15 04:30N 50°38' W 000°58'814.9
2019-Oct-15 03:59N 50°30' W 000°54'1712.3
2019-Oct-15 02:36N 50°14' W 000°46'112.2
2019-Oct-15 02:30N 50°13' W 000°45'612.1
2019-Oct-15 02:00N 50°07' W 000°42'612.4
2019-Oct-15 01:30N 50°01' W 000°38'612.5
2019-Oct-15 01:00N 49°56' W 000°34'612.3
2019-Oct-15 00:30N 49°50' W 000°31'612.1
2019-Oct-15 00:00N 49°45' W 000°27'611.8
2019-Oct-14 23:30N 49°39' W 000°24'611.5
2019-Oct-14 23:00N 49°33' W 000°22'611.4
2019-Oct-14 22:30N 49°28' W 000°19'611.3
2019-Oct-14 22:00N 49°23' W 000°15'510.5
2019-Oct-14 21:30N 49°18' W 000°15'0 0.5
2019-Oct-14 21:00N 49°17' W 000°15'0 0.0
2019-Oct-14 20:30N 49°17' W 000°15'0 0.0
2019-Oct-14 20:00N 49°17' W 000°15'0 0.0
2019-Oct-14 19:30N 49°17' W 000°15'4 7.2
2019-Oct-14 19:00N 49°21' W 000°14'1019.3
2019-Oct-14 18:30N 49°30' W 000°19'918.5
2019-Oct-14 18:00N 49°38' W 000°25'918.0
2019-Oct-14 17:30N 49°47' W 000°31'917.9
2019-Oct-14 17:00N 49°54' W 000°39'918.0
2019-Oct-14 16:30N 50°02' W 000°45'918.1
2019-Oct-14 16:00N 50°11' W 000°49'1718.8
2019-Oct-14 15:06N 50°27' W 000°52'218.4
2019-Oct-14 15:00N 50°29' W 000°53'918.3
2019-Oct-14 14:30N 50°38' W 000°58'917.1
2019-Oct-14 14:00N 50°45' W 001°05'4 7.3
2019-Oct-14 13:31N 50°49' W 001°06'0 0.0
2019-Oct-14 13:01N 50°49' W 001°06'0 0.0
2019-Oct-14 12:31N 50°49' W 001°06'0 0.5
2019-Oct-14 12:01N 50°49' W 001°06'611.7
2019-Oct-14 11:30N 50°43' W 001°03'917.6
2019-Oct-14 11:00N 50°35' W 000°58'1819.7
2019-Oct-14 10:07N 50°18' W 000°49'221.0
2019-Oct-14 10:00N 50°16' W 000°48'1020.4
2019-Oct-14 09:30N 50°07' W 000°43'1020.2
2019-Oct-14 09:00N 49°57' W 000°38'1020.1
2019-Oct-14 08:30N 49°48' W 000°33'1020.1
2019-Oct-14 08:00N 49°38' W 000°29'1019.8
2019-Oct-14 07:30N 49°29' W 000°22'918.7
2019-Oct-14 07:00N 49°21' W 000°15'4 7.2
2019-Oct-14 06:30N 49°17' W 000°15'0 0.0
2019-Oct-14 06:00N 49°17' W 000°15'0 0.0
2019-Oct-14 05:30N 49°17' W 000°15'0 0.0
2019-Oct-14 05:01N 49°17' W 000°15'0 0.2
2019-Oct-14 04:30N 49°17' W 000°15'713.9
2019-Oct-14 04:00N 49°24' W 000°15'816.3
2019-Oct-14 03:30N 49°32' W 000°21'816.9
2019-Oct-14 03:00N 49°39' W 000°26'917.3
2019-Oct-14 02:30N 49°48' W 000°29'715.0
2019-Oct-14 02:00N 49°55' W 000°33'714.2
2019-Oct-14 01:30N 50°02' W 000°36'714.4
2019-Oct-14 01:00N 50°09' W 000°39'2214.7
2019-Oct-13 23:31N 50°29' W 000°53'015.3
2019-Oct-13 23:30N 50°29' W 000°53'815.2
2019-Oct-13 23:00N 50°36' W 000°57'714.2
2019-Oct-13 22:30N 50°42' W 001°02'611.9
2019-Oct-13 22:00N 50°47' W 001°07'1 2.7
2019-Oct-13 21:30N 50°49' W 001°06'0 0.0
2019-Oct-13 21:00N 50°49' W 001°06'0 0.0
2019-Oct-13 20:30N 50°49' W 001°06'0 0.8
2019-Oct-13 20:01N 50°49' W 001°06'612.3
2019-Oct-13 19:30N 50°43' W 001°01'918.3
2019-Oct-13 19:00N 50°35' W 000°57'2019.5
2019-Oct-13 18:00N 50°16' W 000°47'918.1
2019-Oct-13 17:30N 50°08' W 000°43'918.4
2019-Oct-13 17:00N 49°59' W 000°39'918.8
2019-Oct-13 16:30N 49°50' W 000°34'918.9
2019-Oct-13 16:00N 49°41' W 000°28'918.8
2019-Oct-13 15:30N 49°33' W 000°20'919.0
2019-Oct-13 15:00N 49°24' W 000°16'713.8
2019-Oct-13 14:30N 49°17' W 000°15'0 0.1
2019-Oct-13 14:00N 49°17' W 000°15'0 0.0
2019-Oct-13 13:30N 49°17' W 000°15'0 0.0
2019-Oct-13 13:00N 49°17' W 000°15'4 8.0
2019-Oct-13 12:31N 49°21' W 000°15'918.3
2019-Oct-13 12:01N 49°30' W 000°20'918.2
2019-Oct-13 11:31N 49°38' W 000°26'918.9
2019-Oct-13 11:01N 49°46' W 000°33'1019.6
2019-Oct-13 10:31N 49°55' W 000°39'1019.9
2019-Oct-13 10:01N 50°05' W 000°44'1020.0
2019-Oct-13 09:30N 50°14' W 000°49'1019.9
2019-Oct-13 09:00N 50°24' W 000°54'1019.7
2019-Oct-13 08:31N 50°33' W 000°57'918.6
2019-Oct-13 08:01N 50°42' W 001°01'714.4
2019-Oct-13 07:31N 50°48' W 001°07'1 1.5
2019-Oct-13 07:00N 50°49' W 001°06'0 0.0
2019-Oct-13 06:30N 50°49' W 001°06'0 0.0
2019-Oct-13 06:00N 50°49' W 001°06'0 0.2
2019-Oct-13 05:31N 50°49' W 001°06'5 9.1
2019-Oct-13 05:01N 50°44' W 001°04'713.5
2019-Oct-13 04:30N 50°39' W 000°58'611.7
2019-Oct-13 04:01N 50°33' W 000°55'611.7
2019-Oct-13 03:28N 50°28' W 000°51'1111.4
2019-Oct-13 02:33N 50°18' W 000°45'111.8
2019-Oct-13 02:26N 50°17' W 000°44'511.5
2019-Oct-13 02:00N 50°12' W 000°42'611.5
2019-Oct-13 01:30N 50°07' W 000°39'612.0
2019-Oct-13 01:01N 50°01' W 000°36'612.1
2019-Oct-13 00:30N 49°55' W 000°34'612.3
2019-Oct-13 00:00N 49°49' W 000°30'612.1
2019-Oct-12 23:30N 49°43' W 000°27'611.9
2019-Oct-12 23:00N 49°38' W 000°23'611.6
2019-Oct-12 22:31N 49°33' W 000°20'611.5
2019-Oct-12 22:01N 49°27' W 000°17'611.4
2019-Oct-12 21:31N 49°22' W 000°15'4 8.9
2019-Oct-12 21:01N 49°17' W 000°15'0 0.1
2019-Oct-12 20:30N 49°17' W 000°15'0 0.0
2019-Oct-12 20:01N 49°17' W 000°15'0 0.0
2019-Oct-12 19:30N 49°17' W 000°15'4 7.4
2019-Oct-12 19:00N 49°21' W 000°14'1019.2
2019-Oct-12 18:30N 49°30' W 000°19'816.7
2019-Oct-12 18:00N 49°38' W 000°25'816.9
2019-Oct-12 17:30N 49°45' W 000°30'816.6
2019-Oct-12 17:00N 49°53' W 000°34'1019.0
2019-Oct-12 16:31N 50°02' W 000°39'918.8
2019-Oct-12 16:01N 50°11' W 000°45'1719.3
2019-Oct-12 15:07N 50°27' W 000°52'219.1
2019-Oct-12 15:00N 50°30' W 000°53'918.7
2019-Oct-12 14:30N 50°38' W 000°59'917.2
2019-Oct-12 14:01N 50°46' W 001°05'3 6.2
2019-Oct-12 13:31N 50°49' W 001°06'0 0.0
2019-Oct-12 13:00N 50°49' W 001°06'0 0.0
2019-Oct-12 12:30N 50°49' W 001°06'0 0.8
2019-Oct-12 12:00N 50°49' W 001°06'613.0
2019-Oct-12 11:31N 50°43' W 001°02'918.3
2019-Oct-12 11:00N 50°34' W 000°57'1518.8
2019-Oct-12 10:12N 50°20' W 000°49'419.2
2019-Oct-12 09:59N 50°16' W 000°48'918.7
2019-Oct-12 09:30N 50°07' W 000°44'918.3
2019-Oct-12 09:01N 49°59' W 000°39'918.4
2019-Oct-12 08:31N 49°50' W 000°33'918.6
2019-Oct-12 08:01N 49°42' W 000°28'918.7
2019-Oct-12 07:31N 49°33' W 000°22'918.5
2019-Oct-12 07:00N 49°24' W 000°17'714.3
2019-Oct-12 06:30N 49°17' W 000°15'0 0.1
2019-Oct-12 06:00N 49°17' W 000°15'0 0.0
2019-Oct-12 05:30N 49°17' W 000°15'0 0.0
2019-Oct-12 05:00N 49°17' W 000°15'0 0.2
2019-Oct-12 04:31N 49°17' W 000°15'612.9
2019-Oct-12 04:00N 49°24' W 000°14'713.2
2019-Oct-12 03:30N 49°30' W 000°18'713.4
2019-Oct-12 03:00N 49°36' W 000°22'714.9
2019-Oct-12 02:30N 49°43' W 000°26'816.2
2019-Oct-12 02:01N 49°51' W 000°30'816.0
2019-Oct-12 01:30N 49°58' W 000°35'815.8
2019-Oct-12 01:00N 50°06' W 000°39'2116.4
2019-Oct-11 23:43N 50°25' W 000°51'416.4
2019-Oct-11 23:28N 50°29' W 000°53'715.0
2019-Oct-11 23:00N 50°36' W 000°57'714.0
2019-Oct-11 22:30N 50°42' W 001°01'612.5
2019-Oct-11 22:01N 50°47' W 001°07'1 2.8
2019-Oct-11 21:31N 50°49' W 001°06'0 0.0
2019-Oct-11 21:00N 50°49' W 001°06'0 0.0
2019-Oct-11 20:30N 50°49' W 001°06'0 0.6
2019-Oct-11 20:00N 50°49' W 001°06'612.1
2019-Oct-11 19:30N 50°43' W 001°02'919.0
2019-Oct-11 19:00N 50°35' W 000°56'1618.7
2019-Oct-11 18:10N 50°20' W 000°46'320.0
2019-Oct-11 18:00N 50°17' W 000°45'919.0
2019-Oct-11 17:30N 50°08' W 000°41'1019.5
2019-Oct-11 17:00N 49°58' W 000°37'1019.4
2019-Oct-11 16:30N 49°49' W 000°33'1020.0
2019-Oct-11 16:00N 49°40' W 000°29'1020.2
2019-Oct-11 15:30N 49°30' W 000°22'1020.5
2019-Oct-11 15:00N 49°21' W 000°15'4 8.0
2019-Oct-11 14:30N 49°17' W 000°15'0 0.0
2019-Oct-11 14:00N 49°17' W 000°15'0 0.0
2019-Oct-11 13:30N 49°17' W 000°15'0 0.2
2019-Oct-11 13:01N 49°17' W 000°15'815.0
2019-Oct-11 12:31N 49°25' W 000°16'919.0
2019-Oct-11 12:01N 49°34' W 000°21'918.7
2019-Oct-11 11:31N 49°42' W 000°26'918.6
2019-Oct-11 11:00N 49°51' W 000°30'918.8
2019-Oct-11 10:30N 50°01' W 000°33'1019.1
2019-Oct-11 10:01N 50°09' W 000°40'2219.4
2019-Oct-11 08:54N 50°27' W 000°59'719.4
2019-Oct-11 08:31N 50°33' W 001°05'815.9
2019-Oct-11 08:01N 50°41' W 001°03'714.3
2019-Oct-11 07:30N 50°48' W 001°07'1 2.1
2019-Oct-11 07:01N 50°49' W 001°06'0 0.0
2019-Oct-11 06:30N 50°49' W 001°06'0 0.0
2019-Oct-11 06:00N 50°49' W 001°06'0 0.3
2019-Oct-11 05:30N 50°49' W 001°06'510.0
2019-Oct-11 05:00N 50°44' W 001°03'612.4
2019-Oct-11 04:30N 50°39' W 000°58'714.9
2019-Oct-11 04:00N 50°32' W 000°55'1613.6
2019-Oct-11 02:48N 50°16' W 000°46'310.8
2019-Oct-11 02:30N 50°13' W 000°44'510.7
2019-Oct-11 02:00N 50°08' W 000°41'510.9
2019-Oct-11 01:30N 50°03' W 000°38'611.1
2019-Oct-11 01:00N 49°58' W 000°36'611.5
2019-Oct-11 00:30N 49°52' W 000°32'611.4
2019-Oct-11 00:00N 49°47' W 000°29'611.5
2019-Oct-10 23:30N 49°42' W 000°26'611.4
2019-Oct-10 23:00N 49°37' W 000°23'611.2
2019-Oct-10 22:30N 49°31' W 000°19'510.9
2019-Oct-10 22:00N 49°26' W 000°16'510.8
2019-Oct-10 21:30N 49°21' W 000°14'4 7.3
2019-Oct-10 21:00N 49°17' W 000°15'0 0.0
2019-Oct-10 20:30N 49°17' W 000°15'0 0.0
2019-Oct-10 20:00N 49°17' W 000°15'0 0.0
2019-Oct-10 19:30N 49°17' W 000°15'3 6.1
2019-Oct-10 19:00N 49°20' W 000°14'917.9
2019-Oct-10 18:30N 49°29' W 000°18'918.4
2019-Oct-10 18:00N 49°38' W 000°23'918.5
2019-Oct-10 17:30N 49°46' W 000°29'1020.6
2019-Oct-10 17:00N 49°55' W 000°36'1019.9
2019-Oct-10 16:30N 50°05' W 000°40'1020.1
2019-Oct-10 16:00N 50°14' W 000°46'1319.6
2019-Oct-10 15:21N 50°27' W 000°52'719.4
2019-Oct-10 15:00N 50°33' W 000°55'918.9
2019-Oct-10 14:30N 50°42' W 000°58'815.6
2019-Oct-10 14:00N 50°48' W 001°07'1 2.1
2019-Oct-10 13:30N 50°49' W 001°06'0 0.0
2019-Oct-10 13:00N 50°49' W 001°06'0 0.0
2019-Oct-10 12:30N 50°49' W 001°06'1 1.6
2019-Oct-10 12:00N 50°48' W 001°07'713.0
2019-Oct-10 11:31N 50°43' W 001°02'1019.1
2019-Oct-10 11:01N 50°35' W 000°54'1020.0
2019-Oct-10 10:30N 50°25' W 000°47'1019.8
2019-Oct-10 10:00N 50°15' W 000°46'1019.8
2019-Oct-10 09:30N 50°06' W 000°40'1020.0
2019-Oct-10 09:01N 49°57' W 000°35'1019.8
2019-Oct-10 08:31N 49°48' W 000°30'918.8
2019-Oct-10 08:00N 49°39' W 000°26'918.0
2019-Oct-10 07:31N 49°30' W 000°20'918.5
2019-Oct-10 07:01N 49°22' W 000°15'4 8.6
2019-Oct-10 06:30N 49°17' W 000°15'0 0.0
2019-Oct-10 06:00N 49°17' W 000°15'0 0.0
2019-Oct-10 05:30N 49°17' W 000°15'0 0.0
2019-Oct-10 05:00N 49°17' W 000°15'0 0.3
2019-Oct-10 04:30N 49°17' W 000°15'815.3
2019-Oct-10 04:00N 49°25' W 000°15'612.3
2019-Oct-10 03:30N 49°30' W 000°20'611.8
2019-Oct-10 03:00N 49°35' W 000°25'611.2
2019-Oct-10 02:30N 49°40' W 000°27'510.8
2019-Oct-10 02:00N 49°46' W 000°30'510.5
2019-Oct-10 01:30N 49°50' W 000°34'612.4
2019-Oct-10 01:00N 49°56' W 000°38'713.9
2019-Oct-10 00:30N 50°02' W 000°41'713.9
2019-Oct-10 00:00N 50°09' W 000°45'1914.2
2019-Oct-09 22:40N 50°27' W 000°54'214.1
2019-Oct-09 22:31N 50°29' W 000°55'714.2
2019-Oct-09 22:00N 50°36' W 000°59'714.2
2019-Oct-09 21:30N 50°43' W 001°02'612.2
2019-Oct-09 21:00N 50°48' W 001°07'1 1.7
2019-Oct-09 20:30N 50°49' W 001°06'0 0.0
2019-Oct-09 20:00N 50°49' W 001°06'0 0.0
2019-Oct-09 19:30N 50°49' W 001°06'0 0.0
2019-Oct-09 19:00N 50°49' W 001°06'0 0.0
2019-Oct-09 18:30N 50°49' W 001°06'0 0.7
2019-Oct-09 18:00N 50°49' W 001°06'612.6
2019-Oct-09 17:30N 50°43' W 001°02'918.5
2019-Oct-09 17:00N 50°35' W 000°56'918.3
2019-Oct-09 16:30N 50°26' W 000°50'1216.3
2019-Oct-09 15:46N 50°16' W 000°41'417.3
2019-Oct-09 15:30N 50°11' W 000°40'917.5
2019-Oct-09 15:00N 50°02' W 000°38'917.3
2019-Oct-09 14:31N 49°54' W 000°35'917.6
2019-Oct-09 14:00N 49°46' W 000°32'917.9
2019-Oct-09 13:30N 49°37' W 000°29'917.5
2019-Oct-09 13:00N 49°30' W 000°21'918.2
2019-Oct-09 12:30N 49°22' W 000°15'4 8.5
2019-Oct-09 12:01N 49°17' W 000°15'0 0.0
2019-Oct-09 11:30N 49°17' W 000°15'0 0.0
2019-Oct-09 11:00N 49°17' W 000°15'0 0.0
2019-Oct-09 10:30N 49°17' W 000°15'0 0.0
2019-Oct-09 10:00N 49°17' W 000°15'0 0.0
2019-Oct-09 09:31N 49°17' W 000°15'0 0.0
2019-Oct-09 09:01N 49°17' W 000°15'0 0.0
2019-Oct-09 08:31N 49°17' W 000°15'0 0.0
2019-Oct-09 08:00N 49°17' W 000°15'0 0.0
2019-Oct-09 07:30N 49°17' W 000°15'0 0.0
2019-Oct-09 07:00N 49°17' W 000°15'0 0.0
2019-Oct-09 06:30N 49°17' W 000°15'0 0.0
2019-Oct-09 06:00N 49°17' W 000°15'0 0.0
2019-Oct-09 05:30N 49°17' W 000°15'3 6.6
2019-Oct-09 05:01N 49°21' W 000°14'815.3
2019-Oct-09 04:31N 49°28' W 000°18'  

Dump ship's entire track history